sensor_id;sensor_type;location;lat;lon;timestamp;pressure;altitude;pressure_sealevel;temperature;humidity
16481;BME280;44634;54.110;12.138;2022-08-25T00:01:57;102386.84;;;20.07;100.00
16481;BME280;44634;54.110;12.138;2022-08-25T00:04:27;102374.91;;;20.01;100.00
16481;BME280;44634;54.110;12.138;2022-08-25T00:06:55;102372.81;;;19.87;100.00
16481;BME280;44634;54.110;12.138;2022-08-25T00:09:29;102381.28;;;19.74;100.00
16481;BME280;44634;54.110;12.138;2022-08-25T00:11:58;102368.38;;;19.78;100.00
16481;BME280;44634;54.110;12.138;2022-08-25T00:14:30;102373.13;;;19.84;100.00
16481;BME280;44634;54.110;12.138;2022-08-25T00:16:59;102384.88;;;19.83;100.00
16481;BME280;44634;54.110;12.138;2022-08-25T00:19:30;102390.41;;;19.64;100.00
16481;BME280;44634;54.110;12.138;2022-08-25T00:21:59;102390.06;;;19.41;100.00
16481;BME280;44634;54.110;12.138;2022-08-25T00:24:28;102409.88;;;19.48;100.00
16481;BME280;44634;54.110;12.138;2022-08-25T00:26:58;102408.03;;;19.48;100.00
16481;BME280;44634;54.110;12.138;2022-08-25T00:29:27;102415.88;;;19.42;100.00
16481;BME280;44634;54.110;12.138;2022-08-25T00:31:56;102419.78;;;19.47;100.00
16481;BME280;44634;54.110;12.138;2022-08-25T00:34:27;102414.41;;;19.47;100.00
16481;BME280;44634;54.110;12.138;2022-08-25T00:36:56;102412.09;;;19.52;100.00
16481;BME280;44634;54.110;12.138;2022-08-25T00:39:24;102402.31;;;19.61;100.00
16481;BME280;44634;54.110;12.138;2022-08-25T00:41:54;102404.19;;;19.51;100.00
16481;BME280;44634;54.110;12.138;2022-08-25T00:44:27;102400.84;;;19.49;100.00
16481;BME280;44634;54.110;12.138;2022-08-25T00:46:57;102396.53;;;19.38;100.00
16481;BME280;44634;54.110;12.138;2022-08-25T00:49:29;102364.34;;;19.38;100.00
16481;BME280;44634;54.110;12.138;2022-08-25T00:52:00;102352.09;;;19.36;100.00
16481;BME280;44634;54.110;12.138;2022-08-25T00:54:31;102351.34;;;19.43;100.00
16481;BME280;44634;54.110;12.138;2022-08-25T00:57:00;102356.31;;;19.38;100.00
16481;BME280;44634;54.110;12.138;2022-08-25T00:59:32;102353.78;;;19.37;100.00
16481;BME280;44634;54.110;12.138;2022-08-25T01:02:02;102357.00;;;19.58;100.00
16481;BME280;44634;54.110;12.138;2022-08-25T01:04:30;102356.88;;;19.42;100.00
16481;BME280;44634;54.110;12.138;2022-08-25T01:06:58;102358.75;;;19.49;100.00
16481;BME280;44634;54.110;12.138;2022-08-25T01:09:28;102362.00;;;19.53;100.00
16481;BME280;44634;54.110;12.138;2022-08-25T01:11:58;102369.59;;;19.57;100.00
16481;BME280;44634;54.110;12.138;2022-08-25T01:14:27;102372.13;;;19.59;100.00
16481;BME280;44634;54.110;12.138;2022-08-25T01:16:58;102371.47;;;19.65;100.00
16481;BME280;44634;54.110;12.138;2022-08-25T01:19:27;102397.41;;;19.39;100.00
16481;BME280;44634;54.110;12.138;2022-08-25T01:21:57;102399.84;;;19.50;100.00
16481;BME280;44634;54.110;12.138;2022-08-25T01:24:30;102415.03;;;19.23;100.00
16481;BME280;44634;54.110;12.138;2022-08-25T01:26:59;102430.41;;;19.03;100.00
16481;BME280;44634;54.110;12.138;2022-08-25T01:29:27;102423.53;;;19.01;100.00
16481;BME280;44634;54.110;12.138;2022-08-25T01:31:58;102431.09;;;19.06;100.00
16481;BME280;44634;54.110;12.138;2022-08-25T01:34:28;102422.84;;;18.99;100.00
16481;BME280;44634;54.110;12.138;2022-08-25T01:36:58;102431.56;;;19.01;100.00
16481;BME280;44634;54.110;12.138;2022-08-25T01:39:28;102434.78;;;19.05;100.00
16481;BME280;44634;54.110;12.138;2022-08-25T01:42:18;102418.69;;;19.22;100.00
16481;BME280;44634;54.110;12.138;2022-08-25T01:44:50;102409.13;;;19.20;100.00
16481;BME280;44634;54.110;12.138;2022-08-25T01:47:18;102391.41;;;19.45;100.00
16481;BME280;44634;54.110;12.138;2022-08-25T01:49:45;102395.63;;;19.47;100.00
16481;BME280;44634;54.110;12.138;2022-08-25T01:52:20;102384.69;;;19.41;100.00
16481;BME280;44634;54.110;12.138;2022-08-25T01:54:50;102384.59;;;19.32;100.00
16481;BME280;44634;54.110;12.138;2022-08-25T01:57:18;102411.03;;;18.92;100.00
16481;BME280;44634;54.110;12.138;2022-08-25T01:59:46;102427.16;;;18.55;100.00
16481;BME280;44634;54.110;12.138;2022-08-25T02:02:14;102433.75;;;18.60;100.00
16481;BME280;44634;54.110;12.138;2022-08-25T02:04:43;102450.22;;;18.28;100.00
16481;BME280;44634;54.110;12.138;2022-08-25T02:07:12;102444.91;;;18.56;100.00
16481;BME280;44634;54.110;12.138;2022-08-25T02:09:41;102438.59;;;18.47;100.00
16481;BME280;44634;54.110;12.138;2022-08-25T02:12:09;102429.47;;;18.40;100.00
16481;BME280;44634;54.110;12.138;2022-08-25T02:14:37;102424.38;;;18.37;100.00
16481;BME280;44634;54.110;12.138;2022-08-25T02:17:07;102413.09;;;18.43;100.00
16481;BME280;44634;54.110;12.138;2022-08-25T02:19:35;102421.22;;;18.51;100.00
16481;BME280;44634;54.110;12.138;2022-08-25T02:22:03;102424.16;;;18.67;100.00
16481;BME280;44634;54.110;12.138;2022-08-25T02:24:31;102438.19;;;18.52;100.00
16481;BME280;44634;54.110;12.138;2022-08-25T02:27:01;102431.81;;;18.53;100.00
16481;BME280;44634;54.110;12.138;2022-08-25T02:29:29;102419.81;;;18.57;100.00
16481;BME280;44634;54.110;12.138;2022-08-25T02:31:57;102421.50;;;18.67;100.00
16481;BME280;44634;54.110;12.138;2022-08-25T02:34:25;102431.25;;;18.49;100.00
16481;BME280;44634;54.110;12.138;2022-08-25T02:36:53;102422.31;;;18.68;100.00
16481;BME280;44634;54.110;12.138;2022-08-25T02:39:21;102427.38;;;18.71;100.00
16481;BME280;44634;54.110;12.138;2022-08-25T02:41:49;102432.81;;;18.79;100.00
16481;BME280;44634;54.110;12.138;2022-08-25T02:44:18;102431.03;;;18.97;100.00
16481;BME280;44634;54.110;12.138;2022-08-25T02:46:46;102443.66;;;19.05;100.00
16481;BME280;44634;54.110;12.138;2022-08-25T02:49:14;102449.03;;;19.05;100.00
16481;BME280;44634;54.110;12.138;2022-08-25T02:51:42;102437.88;;;19.10;100.00
16481;BME280;44634;54.110;12.138;2022-08-25T02:54:10;102438.09;;;19.16;100.00
16481;BME280;44634;54.110;12.138;2022-08-25T02:56:37;102437.25;;;19.33;100.00
16481;BME280;44634;54.110;12.138;2022-08-25T02:59:06;102438.09;;;19.16;100.00
16481;BME280;44634;54.110;12.138;2022-08-25T03:01:35;102434.50;;;19.25;100.00
16481;BME280;44634;54.110;12.138;2022-08-25T03:04:03;102433.19;;;19.29;100.00
16481;BME280;44634;54.110;12.138;2022-08-25T03:06:32;102435.88;;;19.47;100.00
16481;BME280;44634;54.110;12.138;2022-08-25T03:09:00;102437.72;;;19.65;100.00
16481;BME280;44634;54.110;12.138;2022-08-25T03:11:28;102446.31;;;19.68;100.00
16481;BME280;44634;54.110;12.138;2022-08-25T03:13:57;102444.31;;;19.70;100.00
16481;BME280;44634;54.110;12.138;2022-08-25T03:16:25;102447.06;;;19.78;100.00
16481;BME280;44634;54.110;12.138;2022-08-25T03:18:55;102424.25;;;19.56;100.00
16481;BME280;44634;54.110;12.138;2022-08-25T03:21:26;102409.31;;;19.80;100.00
16481;BME280;44634;54.110;12.138;2022-08-25T03:23:55;102394.84;;;19.73;100.00
16481;BME280;44634;54.110;12.138;2022-08-25T03:26:23;102383.38;;;20.14;100.00
16481;BME280;44634;54.110;12.138;2022-08-25T03:29:09;102396.25;;;19.59;100.00
16481;BME280;44634;54.110;12.138;2022-08-25T03:31:39;102368.91;;;19.81;100.00
16481;BME280;44634;54.110;12.138;2022-08-25T03:34:11;102380.06;;;19.95;100.00
16481;BME280;44634;54.110;12.138;2022-08-25T03:36:39;102401.00;;;20.17;100.00
16481;BME280;44634;54.110;12.138;2022-08-25T03:39:06;102424.66;;;20.13;100.00
16481;BME280;44634;54.110;12.138;2022-08-25T03:41:34;102432.88;;;20.12;100.00
16481;BME280;44634;54.110;12.138;2022-08-25T03:44:04;102439.19;;;20.03;100.00
16481;BME280;44634;54.110;12.138;2022-08-25T03:46:36;102453.25;;;19.97;100.00
16481;BME280;44634;54.110;12.138;2022-08-25T03:49:06;102456.72;;;19.89;100.00
16481;BME280;44634;54.110;12.138;2022-08-25T03:51:38;102452.25;;;19.98;100.00
16481;BME280;44634;54.110;12.138;2022-08-25T03:54:08;102447.75;;;20.06;100.00
16481;BME280;44634;54.110;12.138;2022-08-25T03:56:37;102441.19;;;20.01;100.00
16481;BME280;44634;54.110;12.138;2022-08-25T03:59:06;102443.28;;;19.89;100.00
16481;BME280;44634;54.110;12.138;2022-08-25T04:01:35;102439.25;;;19.85;100.00
16481;BME280;44634;54.110;12.138;2022-08-25T04:04:04;102424.09;;;20.10;100.00
16481;BME280;44634;54.110;12.138;2022-08-25T04:06:33;102412.66;;;20.26;100.00
16481;BME280;44634;54.110;12.138;2022-08-25T04:09:02;102409.16;;;20.07;100.00
16481;BME280;44634;54.110;12.138;2022-08-25T04:11:30;102382.56;;;19.96;100.00
16481;BME280;44634;54.110;12.138;2022-08-25T04:13:59;102383.69;;;20.11;100.00
16481;BME280;44634;54.110;12.138;2022-08-25T04:16:29;102387.56;;;20.17;100.00
16481;BME280;44634;54.110;12.138;2022-08-25T04:18:59;102377.31;;;20.12;100.00
16481;BME280;44634;54.110;12.138;2022-08-25T04:21:28;102388.22;;;20.11;100.00
16481;BME280;44634;54.110;12.138;2022-08-25T04:23:56;102405.19;;;20.11;100.00
16481;BME280;44634;54.110;12.138;2022-08-25T04:26:30;102409.56;;;20.20;100.00
16481;BME280;44634;54.110;12.138;2022-08-25T04:29:00;102403.38;;;20.20;100.00
16481;BME280;44634;54.110;12.138;2022-08-25T04:31:30;102404.97;;;20.39;100.00
16481;BME280;44634;54.110;12.138;2022-08-25T04:34:01;102411.81;;;20.33;100.00
16481;BME280;44634;54.110;12.138;2022-08-25T04:36:42;102408.63;;;20.56;100.00
16481;BME280;44634;54.110;12.138;2022-08-25T04:39:18;102406.09;;;20.62;100.00
16481;BME280;44634;54.110;12.138;2022-08-25T04:41:49;102403.88;;;20.49;100.00
16481;BME280;44634;54.110;12.138;2022-08-25T04:44:17;102402.13;;;20.74;100.00
16481;BME280;44634;54.110;12.138;2022-08-25T04:46:45;102409.16;;;20.75;100.00
16481;BME280;44634;54.110;12.138;2022-08-25T04:49:14;102409.47;;;20.64;100.00
16481;BME280;44634;54.110;12.138;2022-08-25T04:51:43;102401.44;;;20.80;100.00
16481;BME280;44634;54.110;12.138;2022-08-25T04:54:13;102398.00;;;21.21;100.00
16481;BME280;44634;54.110;12.138;2022-08-25T04:56:43;102421.69;;;21.01;100.00
16481;BME280;44634;54.110;12.138;2022-08-25T04:59:14;102419.22;;;21.40;100.00
16481;BME280;44634;54.110;12.138;2022-08-25T05:01:43;102429.91;;;21.07;100.00
16481;BME280;44634;54.110;12.138;2022-08-25T05:04:20;102422.94;;;21.31;100.00
16481;BME280;44634;54.110;12.138;2022-08-25T05:06:54;102423.56;;;21.25;100.00
16481;BME280;44634;54.110;12.138;2022-08-25T05:09:22;102424.03;;;21.04;100.00
16481;BME280;44634;54.110;12.138;2022-08-25T05:11:50;102421.84;;;21.07;100.00
16481;BME280;44634;54.110;12.138;2022-08-25T05:14:20;102456.09;;;20.89;100.00
16481;BME280;44634;54.110;12.138;2022-08-25T05:16:52;102461.66;;;20.96;100.00
16481;BME280;44634;54.110;12.138;2022-08-25T05:19:21;102461.34;;;21.07;100.00
16481;BME280;44634;54.110;12.138;2022-08-25T05:21:49;102461.38;;;20.65;100.00
16481;BME280;44634;54.110;12.138;2022-08-25T05:24:17;102455.38;;;20.79;100.00
16481;BME280;44634;54.110;12.138;2022-08-25T05:26:46;102449.59;;;21.08;100.00
16481;BME280;44634;54.110;12.138;2022-08-25T05:29:13;102461.19;;;21.00;100.00
16481;BME280;44634;54.110;12.138;2022-08-25T05:31:43;102456.16;;;21.22;100.00
16481;BME280;44634;54.110;12.138;2022-08-25T05:34:16;102459.44;;;21.42;100.00
16481;BME280;44634;54.110;12.138;2022-08-25T05:36:45;102464.47;;;21.45;100.00
16481;BME280;44634;54.110;12.138;2022-08-25T05:39:13;102470.69;;;21.53;100.00
16481;BME280;44634;54.110;12.138;2022-08-25T05:41:41;102465.00;;;21.64;100.00
16481;BME280;44634;54.110;12.138;2022-08-25T05:44:09;102460.78;;;21.46;100.00
16481;BME280;44634;54.110;12.138;2022-08-25T05:46:38;102455.56;;;21.44;100.00
16481;BME280;44634;54.110;12.138;2022-08-25T05:49:07;102451.34;;;21.66;100.00
16481;BME280;44634;54.110;12.138;2022-08-25T05:51:35;102456.41;;;21.69;100.00
16481;BME280;44634;54.110;12.138;2022-08-25T05:54:03;102453.69;;;21.69;100.00
16481;BME280;44634;54.110;12.138;2022-08-25T05:56:31;102445.28;;;21.80;100.00
16481;BME280;44634;54.110;12.138;2022-08-25T05:58:59;102446.47;;;21.78;100.00
16481;BME280;44634;54.110;12.138;2022-08-25T06:01:32;102441.59;;;21.81;100.00
16481;BME280;44634;54.110;12.138;2022-08-25T06:04:19;102442.91;;;21.93;100.00
16481;BME280;44634;54.110;12.138;2022-08-25T06:06:48;102447.47;;;21.93;100.00
16481;BME280;44634;54.110;12.138;2022-08-25T06:09:19;102429.63;;;22.16;100.00
16481;BME280;44634;54.110;12.138;2022-08-25T06:11:47;102411.84;;;22.46;100.00
16481;BME280;44634;54.110;12.138;2022-08-25T06:14:20;102397.69;;;22.44;100.00
16481;BME280;44634;54.110;12.138;2022-08-25T06:16:48;102401.34;;;22.51;100.00
16481;BME280;44634;54.110;12.138;2022-08-25T06:19:18;102412.13;;;22.91;100.00
16481;BME280;44634;54.110;12.138;2022-08-25T06:21:47;102420.78;;;22.78;100.00
16481;BME280;44634;54.110;12.138;2022-08-25T06:24:15;102401.41;;;22.74;100.00
16481;BME280;44634;54.110;12.138;2022-08-25T06:26:43;102404.47;;;23.02;100.00
16481;BME280;44634;54.110;12.138;2022-08-25T06:29:11;102409.25;;;22.92;100.00
16481;BME280;44634;54.110;12.138;2022-08-25T06:31:41;102404.84;;;23.22;100.00
16481;BME280;44634;54.110;12.138;2022-08-25T06:34:10;102412.56;;;23.25;100.00
16481;BME280;44634;54.110;12.138;2022-08-25T06:36:39;102412.19;;;23.28;100.00
16481;BME280;44634;54.110;12.138;2022-08-25T06:39:07;102411.63;;;23.18;100.00
16481;BME280;44634;54.110;12.138;2022-08-25T06:41:36;102410.34;;;23.29;100.00
16481;BME280;44634;54.110;12.138;2022-08-25T06:44:04;102416.34;;;23.39;100.00
16481;BME280;44634;54.110;12.138;2022-08-25T06:46:32;102411.25;;;23.67;100.00
16481;BME280;44634;54.110;12.138;2022-08-25T06:49:03;102417.84;;;23.64;100.00
16481;BME280;44634;54.110;12.138;2022-08-25T06:51:31;102425.41;;;23.46;100.00
16481;BME280;44634;54.110;12.138;2022-08-25T06:54:03;102430.63;;;23.48;100.00
16481;BME280;44634;54.110;12.138;2022-08-25T06:56:31;102426.31;;;23.38;100.00
16481;BME280;44634;54.110;12.138;2022-08-25T06:58:59;102414.31;;;23.64;100.00
16481;BME280;44634;54.110;12.138;2022-08-25T07:01:28;102423.72;;;23.68;100.00
16481;BME280;44634;54.110;12.138;2022-08-25T07:03:59;102418.09;;;23.92;100.00
16481;BME280;44634;54.110;12.138;2022-08-25T07:06:30;102423.31;;;23.33;100.00
16481;BME280;44634;54.110;12.138;2022-08-25T07:08:58;102406.69;;;23.82;100.00
16481;BME280;44634;54.110;12.138;2022-08-25T07:11:27;102418.91;;;23.55;100.00
16481;BME280;44634;54.110;12.138;2022-08-25T07:14:00;102416.38;;;23.77;100.00
16481;BME280;44634;54.110;12.138;2022-08-25T07:16:28;102413.34;;;23.94;100.00
16481;BME280;44634;54.110;12.138;2022-08-25T07:18:57;102405.31;;;24.16;100.00
16481;BME280;44634;54.110;12.138;2022-08-25T07:21:27;102419.59;;;24.10;100.00
16481;BME280;44634;54.110;12.138;2022-08-25T07:24:03;102409.53;;;24.62;100.00
16481;BME280;44634;54.110;12.138;2022-08-25T07:26:34;102408.41;;;23.98;100.00
16481;BME280;44634;54.110;12.138;2022-08-25T07:29:07;102401.22;;;23.90;100.00
16481;BME280;44634;54.110;12.138;2022-08-25T07:31:35;102406.69;;;23.82;100.00
16481;BME280;44634;54.110;12.138;2022-08-25T07:34:03;102402.91;;;24.06;100.00
16481;BME280;44634;54.110;12.138;2022-08-25T07:36:51;102401.47;;;24.69;100.00
16481;BME280;44634;54.110;12.138;2022-08-25T07:39:19;102397.78;;;24.41;100.00
16481;BME280;44634;54.110;12.138;2022-08-25T07:41:49;102393.09;;;24.64;100.00
16481;BME280;44634;54.110;12.138;2022-08-25T07:44:19;102390.94;;;24.96;100.00
16481;BME280;44634;54.110;12.138;2022-08-25T07:46:47;102391.06;;;25.24;100.00
16481;BME280;44634;54.110;12.138;2022-08-25T07:49:16;102369.72;;;25.14;100.00
16481;BME280;44634;54.110;12.138;2022-08-25T07:51:49;102367.91;;;25.21;100.00
16481;BME280;44634;54.110;12.138;2022-08-25T07:54:31;102338.72;;;25.44;100.00
16481;BME280;44634;54.110;12.138;2022-08-25T07:57:02;102330.13;;;25.34;100.00
16481;BME280;44634;54.110;12.138;2022-08-25T07:59:30;102322.47;;;25.16;100.00
16481;BME280;44634;54.110;12.138;2022-08-25T08:02:06;102324.41;;;25.01;100.00
16481;BME280;44634;54.110;12.138;2022-08-25T08:04:43;102315.47;;;25.57;100.00
16481;BME280;44634;54.110;12.138;2022-08-25T08:07:15;102312.78;;;25.57;100.00
16481;BME280;44634;54.110;12.138;2022-08-25T08:09:43;102294.16;;;25.75;100.00
16481;BME280;44634;54.110;12.138;2022-08-25T08:12:13;102283.53;;;25.73;100.00
16481;BME280;44634;54.110;12.138;2022-08-25T08:14:40;102267.91;;;26.23;100.00
16481;BME280;44634;54.110;12.138;2022-08-25T08:17:12;102253.81;;;26.54;100.00
16481;BME280;44634;54.110;12.138;2022-08-25T08:19:42;102232.09;;;26.41;100.00
16481;BME280;44634;54.110;12.138;2022-08-25T08:22:12;102219.25;;;26.08;100.00
16481;BME280;44634;54.110;12.138;2022-08-25T08:24:42;102212.63;;;26.24;100.00
16481;BME280;44634;54.110;12.138;2022-08-25T08:27:23;102197.78;;;26.07;100.00
16481;BME280;44634;54.110;12.138;2022-08-25T08:29:51;102179.41;;;26.02;100.00
16481;BME280;44634;54.110;12.138;2022-08-25T08:32:19;102175.56;;;26.71;100.00
16481;BME280;44634;54.110;12.138;2022-08-25T08:34:57;102143.00;;;26.71;100.00
16481;BME280;44634;54.110;12.138;2022-08-25T08:37:24;102150.63;;;25.95;100.00
16481;BME280;44634;54.110;12.138;2022-08-25T08:39:53;102160.44;;;26.02;100.00
16481;BME280;44634;54.110;12.138;2022-08-25T08:42:37;102137.97;;;26.61;100.00
16481;BME280;44634;54.110;12.138;2022-08-25T08:45:29;102088.06;;;27.53;100.00
16481;BME280;44634;54.110;12.138;2022-08-25T08:48:33;102057.59;;;26.74;100.00
16481;BME280;44634;54.110;12.138;2022-08-25T08:51:16;102034.09;;;26.48;100.00
16481;BME280;44634;54.110;12.138;2022-08-25T08:53:53;101986.34;;;27.43;100.00
16481;BME280;44634;54.110;12.138;2022-08-25T08:56:25;101964.53;;;27.18;100.00
16481;BME280;44634;54.110;12.138;2022-08-25T08:58:59;101969.28;;;26.84;100.00
16481;BME280;44634;54.110;12.138;2022-08-25T09:01:33;101940.63;;;26.95;100.00
16481;BME280;44634;54.110;12.138;2022-08-25T09:04:08;101905.06;;;27.41;100.00
16481;BME280;44634;54.110;12.138;2022-08-25T09:06:41;101882.34;;;27.36;100.00
16481;BME280;44634;54.110;12.138;2022-08-25T09:09:12;101861.03;;;27.57;100.00
16481;BME280;44634;54.110;12.138;2022-08-25T09:11:53;101854.78;;;27.57;100.00
16481;BME280;44634;54.110;12.138;2022-08-25T09:14:45;101835.53;;;27.58;100.00
16481;BME280;44634;54.110;12.138;2022-08-25T09:17:27;101836.06;;;27.24;100.00
16481;BME280;44634;54.110;12.138;2022-08-25T09:20:10;101838.25;;;27.34;100.00
16481;BME280;44634;54.110;12.138;2022-08-25T09:22:51;101843.41;;;27.17;100.00
16481;BME280;44634;54.110;12.138;2022-08-25T09:25:31;101822.25;;;27.50;100.00
16481;BME280;44634;54.110;12.138;2022-08-25T09:28:24;101774.38;;;27.74;100.00
16481;BME280;44634;54.110;12.138;2022-08-25T09:31:00;101777.91;;;26.75;100.00
16481;BME280;44634;54.110;12.138;2022-08-25T09:33:30;101792.75;;;26.28;100.00
16481;BME280;44634;54.110;12.138;2022-08-25T09:36:01;101768.53;;;27.52;100.00
16481;BME280;44634;54.110;12.138;2022-08-25T09:38:31;101726.00;;;27.65;100.00
16481;BME280;44634;54.110;12.138;2022-08-25T09:41:00;101723.06;;;27.41;100.00
16481;BME280;44634;54.110;12.138;2022-08-25T09:43:31;101729.47;;;27.28;100.00
16481;BME280;44634;54.110;12.138;2022-08-25T09:46:07;101708.25;;;27.80;100.00
16481;BME280;44634;54.110;12.138;2022-08-25T09:48:42;101664.41;;;28.19;100.00
16481;BME280;44634;54.110;12.138;2022-08-25T09:51:21;101663.50;;;28.25;100.00
16481;BME280;44634;54.110;12.138;2022-08-25T09:53:53;101542.63;;;27.97;100.00
16481;BME280;44634;54.110;12.138;2022-08-25T09:56:22;101594.25;;;27.97;100.00
16481;BME280;44634;54.110;12.138;2022-08-25T09:58:52;101579.78;;;27.55;100.00
16481;BME280;44634;54.110;12.138;2022-08-25T10:01:22;101582.13;;;27.33;100.00
16481;BME280;44634;54.110;12.138;2022-08-25T10:03:57;101589.19;;;27.22;100.00
16481;BME280;44634;54.110;12.138;2022-08-25T10:06:28;101616.44;;;27.82;100.00
16481;BME280;44634;54.110;12.138;2022-08-25T10:08:58;101624.47;;;27.41;100.00
16481;BME280;44634;54.110;12.138;2022-08-25T10:11:37;101663.09;;;28.39;100.00
16481;BME280;44634;54.110;12.138;2022-08-25T10:14:17;101713.34;;;29.72;100.00
16481;BME280;44634;54.110;12.138;2022-08-25T10:16:47;101706.88;;;29.26;100.00
16481;BME280;44634;54.110;12.138;2022-08-25T10:19:25;101716.72;;;29.39;100.00
16481;BME280;44634;54.110;12.138;2022-08-25T10:22:05;101763.66;;;30.05;100.00
16481;BME280;44634;54.110;12.138;2022-08-25T10:24:38;101764.69;;;28.75;100.00
16481;BME280;44634;54.110;12.138;2022-08-25T10:27:20;101724.75;;;29.34;100.00
16481;BME280;44634;54.110;12.138;2022-08-25T10:30:00;101785.94;;;30.02;100.00
16481;BME280;44634;54.110;12.138;2022-08-25T10:32:44;101804.41;;;30.23;100.00
16481;BME280;44634;54.110;12.138;2022-08-25T10:35:18;101816.00;;;29.67;100.00
16481;BME280;44634;54.110;12.138;2022-08-25T10:38:00;101839.66;;;30.25;100.00
16481;BME280;44634;54.110;12.138;2022-08-25T10:40:35;101854.16;;;31.44;100.00
16481;BME280;44634;54.110;12.138;2022-08-25T10:43:23;101865.94;;;31.45;100.00
16481;BME280;44634;54.110;12.138;2022-08-25T10:46:00;101858.75;;;31.10;100.00
16481;BME280;44634;54.110;12.138;2022-08-25T10:48:50;101822.28;;;29.55;100.00
16481;BME280;44634;54.110;12.138;2022-08-25T10:51:30;101860.13;;;31.58;100.00
16481;BME280;44634;54.110;12.138;2022-08-25T10:54:04;101878.31;;;32.03;100.00
16481;BME280;44634;54.110;12.138;2022-08-25T10:56:36;101885.69;;;32.68;100.00
16481;BME280;44634;54.110;12.138;2022-08-25T10:59:25;101897.22;;;32.92;100.00
16481;BME280;44634;54.110;12.138;2022-08-25T11:02:11;101894.50;;;32.97;100.00
16481;BME280;44634;54.110;12.138;2022-08-25T11:04:50;101887.66;;;32.72;100.00
16481;BME280;44634;54.110;12.138;2022-08-25T11:07:24;101886.63;;;30.95;100.00
16481;BME280;44634;54.110;12.138;2022-08-25T11:09:59;101871.97;;;31.30;100.00
16481;BME280;44634;54.110;12.138;2022-08-25T11:12:31;101867.19;;;31.08;100.00
16481;BME280;44634;54.110;12.138;2022-08-25T11:15:06;101871.41;;;31.45;100.00
16481;BME280;44634;54.110;12.138;2022-08-25T11:17:40;101867.91;;;31.49;100.00
16481;BME280;44634;54.110;12.138;2022-08-25T11:20:14;101855.78;;;30.66;100.00
16481;BME280;44634;54.110;12.138;2022-08-25T11:22:58;101860.41;;;30.66;100.00
16481;BME280;44634;54.110;12.138;2022-08-25T11:25:34;101850.78;;;30.23;100.00
16481;BME280;44634;54.110;12.138;2022-08-25T11:28:10;101846.94;;;29.84;100.00
16481;BME280;44634;54.110;12.138;2022-08-25T11:30:40;101833.84;;;29.16;100.00
16481;BME280;44634;54.110;12.138;2022-08-25T11:33:11;101825.69;;;29.39;100.00
16481;BME280;44634;54.110;12.138;2022-08-25T11:35:42;101813.75;;;28.87;100.00
16481;BME280;44634;54.110;12.138;2022-08-25T11:38:26;101815.00;;;29.14;100.00
16481;BME280;44634;54.110;12.138;2022-08-25T11:41:07;101806.28;;;29.47;100.00
16481;BME280;44634;54.110;12.138;2022-08-25T11:44:03;101806.00;;;29.14;100.00
16481;BME280;44634;54.110;12.138;2022-08-25T11:46:44;101801.75;;;28.46;100.00
16481;BME280;44634;54.110;12.138;2022-08-25T11:49:30;101799.34;;;28.68;100.00
16481;BME280;44634;54.110;12.138;2022-08-25T11:52:45;101794.53;;;28.82;100.00
16481;BME280;44634;54.110;12.138;2022-08-25T11:55:19;101780.34;;;28.50;100.00
16481;BME280;44634;54.110;12.138;2022-08-25T11:57:51;101800.44;;;29.20;100.00
16481;BME280;44634;54.110;12.138;2022-08-25T12:00:36;101804.34;;;29.13;100.00
16481;BME280;44634;54.110;12.138;2022-08-25T12:06:28;101801.59;;;29.01;100.00
16481;BME280;44634;54.110;12.138;2022-08-25T12:09:19;101810.72;;;28.95;100.00
16481;BME280;44634;54.110;12.138;2022-08-25T12:11:50;101825.13;;;29.49;100.00
16481;BME280;44634;54.110;12.138;2022-08-25T12:14:44;101814.22;;;29.37;100.00
16481;BME280;44634;54.110;12.138;2022-08-25T12:17:19;101827.72;;;30.99;100.00
16481;BME280;44634;54.110;12.138;2022-08-25T12:19:54;101835.94;;;32.27;100.00
16481;BME280;44634;54.110;12.138;2022-08-25T12:22:44;101851.56;;;33.34;100.00
16481;BME280;44634;54.110;12.138;2022-08-25T12:25:33;101852.94;;;32.78;100.00
16481;BME280;44634;54.110;12.138;2022-08-25T12:28:08;101838.66;;;32.05;100.00
16481;BME280;44634;54.110;12.138;2022-08-25T12:30:49;101840.41;;;31.39;100.00
16481;BME280;44634;54.110;12.138;2022-08-25T12:33:34;101835.59;;;32.23;100.00
16481;BME280;44634;54.110;12.138;2022-08-25T12:36:07;101835.66;;;33.73;100.00
16481;BME280;44634;54.110;12.138;2022-08-25T12:38:42;101825.78;;;33.72;100.00
16481;BME280;44634;54.110;12.138;2022-08-25T12:41:20;101817.81;;;31.27;100.00
16481;BME280;44634;54.110;12.138;2022-08-25T12:43:51;101809.72;;;31.71;100.00
16481;BME280;44634;54.110;12.138;2022-08-25T12:46:35;101792.50;;;30.41;100.00
16481;BME280;44634;54.110;12.138;2022-08-25T12:49:12;101805.13;;;31.93;100.00
16481;BME280;44634;54.110;12.138;2022-08-25T12:51:57;101815.41;;;32.51;100.00
16481;BME280;44634;54.110;12.138;2022-08-25T12:54:38;101807.53;;;32.11;100.00
16481;BME280;44634;54.110;12.138;2022-08-25T12:57:32;101822.06;;;33.14;100.00
16481;BME280;44634;54.110;12.138;2022-08-25T13:00:13;101819.03;;;33.43;100.00
16481;BME280;44634;54.110;12.138;2022-08-25T13:03:34;101815.97;;;32.80;100.00